Cheryl Stegbauer — WYN6276 — position and weather

sailwx.info

Track history (hours):
 
Tides and Currents Weather Stations Pressure Air Temp Water Temp Dewpoint Dewpoint Depression Visibility Wind Speed Wind Dir Waves Ship Positions

Cheryl Stegbauer

Owner: SOUTHERN TOWING COMPANY LLC., MEMPHIS, TN. More information available from US FCC via Universal Licensing System and Coast Guard Vessel Documentation Center.

Last reported at 2018-May-01 15:50 UTC. Time now 2018-Jun-25 19:37 UTC.
Position N 39°09' W 090°43'.
Warning: this ship's position is 55 days out of date.

Length 35 m; draft 9.3 m.

Type: Towing. MMSI: 366917160.

Date/timePositionNaut miles runAvg speedWind from/ knotsBaromVisibWave heightAir tempDewpointWater temp
2018-May-01 15:50N 39°09' W 090°43'2 4.2
2018-May-01 15:25N 39°07' W 090°41'3 4.7
2018-May-01 14:51N 39°04' W 090°42'2 4.5
2018-May-01 14:30N 39°03' W 090°43'2 4.3
2018-May-01 14:00N 39°01' W 090°42'1 2.4
2018-May-01 13:29N 39°00' W 090°41'1 2.3
2018-May-01 12:55N 38°59' W 090°40'1 0.3
2018-May-01 09:39N 38°58' W 090°40'0 2.2
2018-May-01 09:30N 38°58' W 090°40'2 3.6
2018-May-01 09:00N 38°56' W 090°40'2 3.5
2018-May-01 08:30N 38°55' W 090°39'2 3.6
2018-May-01 08:00N 38°53' W 090°37'0 0.4
2018-May-01 07:30N 38°53' W 090°37'1 2.9
2018-May-01 07:00N 38°52' W 090°36'3 5.1
2018-May-01 06:30N 38°52' W 090°33'1 1.8
2018-May-01 06:00N 38°53' W 090°32'2 3.6
2018-May-01 05:30N 38°55' W 090°31'2 4.5
2018-May-01 05:00N 38°56' W 090°29'2 3.8
2018-May-01 04:30N 38°57' W 090°27'2 4.1
2018-May-01 04:00N 38°58' W 090°24'2 4.3
2018-May-01 03:30N 38°57' W 090°22'1 1.9
2018-May-01 03:00N 38°57' W 090°21'2 3.6
2018-May-01 02:30N 38°55' W 090°19'3 6.4
2018-May-01 02:00N 38°55' W 090°15'2 4.0
2018-May-01 01:30N 38°54' W 090°13'2 4.2
2018-May-01 01:00N 38°53' W 090°10'1 2.4
2018-May-01 00:25N 38°52' W 090°09'11 4.0
2018-Apr-30 21:40N 38°41' W 090°11'1 4.8
2018-Apr-30 21:30N 38°40' W 090°11'  
Track history (hours):
 
Tides and Currents Weather Stations Pressure Air Temp Water Temp Dewpoint Dewpoint Depression Visibility Wind Speed Wind Dir Waves Ship Positions

Cheryl Stegbauer

Owner: SOUTHERN TOWING COMPANY LLC., MEMPHIS, TN. More information available from US FCC via Universal Licensing System and Coast Guard Vessel Documentation Center.

Last reported at 2018-May-01 15:50 UTC. Time now 2018-Jun-25 19:37 UTC.
Position N 39°09' W 090°43'.
Warning: this ship's position is 55 days out of date.

Length 35 m; draft 9.3 m.

Type: Towing. MMSI: 366917160.

Date/timePositionNaut miles runAvg speedWind from/ knotsBaromVisibWave heightAir tempDewpointWater temp
2018-May-01 15:50N 39°09' W 090°43'2 4.2
2018-May-01 15:25N 39°07' W 090°41'3 4.7
2018-May-01 14:51N 39°04' W 090°42'2 4.5
2018-May-01 14:30N 39°03' W 090°43'2 4.3
2018-May-01 14:00N 39°01' W 090°42'1 2.4
2018-May-01 13:29N 39°00' W 090°41'1 2.3
2018-May-01 12:55N 38°59' W 090°40'1 0.3
2018-May-01 09:39N 38°58' W 090°40'0 2.2
2018-May-01 09:30N 38°58' W 090°40'2 3.6
2018-May-01 09:00N 38°56' W 090°40'2 3.5
2018-May-01 08:30N 38°55' W 090°39'2 3.6
2018-May-01 08:00N 38°53' W 090°37'0 0.4
2018-May-01 07:30N 38°53' W 090°37'1 2.9
2018-May-01 07:00N 38°52' W 090°36'3 5.1
2018-May-01 06:30N 38°52' W 090°33'1 1.8
2018-May-01 06:00N 38°53' W 090°32'2 3.6
2018-May-01 05:30N 38°55' W 090°31'2 4.5
2018-May-01 05:00N 38°56' W 090°29'2 3.8
2018-May-01 04:30N 38°57' W 090°27'2 4.1
2018-May-01 04:00N 38°58' W 090°24'2 4.3
2018-May-01 03:30N 38°57' W 090°22'1 1.9
2018-May-01 03:00N 38°57' W 090°21'2 3.6
2018-May-01 02:30N 38°55' W 090°19'3 6.4
2018-May-01 02:00N 38°55' W 090°15'2 4.0
2018-May-01 01:30N 38°54' W 090°13'2 4.2
2018-May-01 01:00N 38°53' W 090°10'1 2.4
2018-May-01 00:25N 38°52' W 090°09'11 4.0
2018-Apr-30 21:40N 38°41' W 090°11'1 4.8
2018-Apr-30 21:30N 38°40' W 090°11'  

Dump ship's entire track history